sensor_id;sensor_type;location;lat;lon;timestamp;P1;durP1;ratioP1;P2;durP2;ratioP2
34928;SDS011;21133;48.048;7.724;2022-10-19T00:00:26;14.43;;;3.50;;
34928;SDS011;21133;48.048;7.724;2022-10-19T00:02:52;5.13;;;2.93;;
34928;SDS011;21133;48.048;7.724;2022-10-19T00:05:18;3.50;;;3.20;;
34928;SDS011;21133;48.048;7.724;2022-10-19T00:07:44;4.50;;;2.40;;
34928;SDS011;21133;48.048;7.724;2022-10-19T00:10:10;8.23;;;2.80;;
34928;SDS011;21133;48.048;7.724;2022-10-19T00:12:36;4.00;;;3.03;;
34928;SDS011;21133;48.048;7.724;2022-10-19T00:15:03;13.70;;;2.87;;
34928;SDS011;21133;48.048;7.724;2022-10-19T00:17:29;2.60;;;2.60;;
34928;SDS011;21133;48.048;7.724;2022-10-19T00:19:55;2.87;;;2.77;;
34928;SDS011;21133;48.048;7.724;2022-10-19T00:22:21;7.80;;;3.90;;
34928;SDS011;21133;48.048;7.724;2022-10-19T00:24:47;1.83;;;1.83;;
34928;SDS011;21133;48.048;7.724;2022-10-19T00:27:13;2.27;;;2.27;;
34928;SDS011;21133;48.048;7.724;2022-10-19T00:29:39;2.00;;;1.90;;
34928;SDS011;21133;48.048;7.724;2022-10-19T00:32:05;2.90;;;2.73;;
34928;SDS011;21133;48.048;7.724;2022-10-19T00:34:31;9.73;;;2.57;;
34928;SDS011;21133;48.048;7.724;2022-10-19T00:36:57;6.83;;;2.90;;
34928;SDS011;21133;48.048;7.724;2022-10-19T00:39:23;2.97;;;2.90;;
34928;SDS011;21133;48.048;7.724;2022-10-19T00:41:49;3.07;;;2.97;;
34928;SDS011;21133;48.048;7.724;2022-10-19T00:46:42;3.30;;;3.20;;
34928;SDS011;21133;48.048;7.724;2022-10-19T00:51:38;4.90;;;4.47;;
34928;SDS011;21133;48.048;7.724;2022-10-19T00:54:05;7.67;;;6.80;;
34928;SDS011;21133;48.048;7.724;2022-10-19T00:56:32;8.70;;;7.57;;
34928;SDS011;21133;48.048;7.724;2022-10-19T00:58:58;7.67;;;6.80;;
34928;SDS011;21133;48.048;7.724;2022-10-19T01:01:26;9.43;;;7.60;;
34928;SDS011;21133;48.048;7.724;2022-10-19T01:03:53;6.43;;;5.93;;
34928;SDS011;21133;48.048;7.724;2022-10-19T01:06:19;6.47;;;5.87;;
34928;SDS011;21133;48.048;7.724;2022-10-19T01:08:45;6.87;;;6.33;;
34928;SDS011;21133;48.048;7.724;2022-10-19T01:13:52;7.00;;;6.33;;
34928;SDS011;21133;48.048;7.724;2022-10-19T01:16:23;8.67;;;7.83;;
34928;SDS011;21133;48.048;7.724;2022-10-19T01:21:27;7.93;;;7.33;;
34928;SDS011;21133;48.048;7.724;2022-10-19T01:29:40;7.87;;;7.27;;
34928;SDS011;21133;48.048;7.724;2022-10-19T01:32:10;11.27;;;7.33;;
34928;SDS011;21133;48.048;7.724;2022-10-19T01:34:39;7.00;;;6.40;;
34928;SDS011;21133;48.048;7.724;2022-10-19T01:37:27;8.90;;;8.10;;
34928;SDS011;21133;48.048;7.724;2022-10-19T01:39:59;7.90;;;7.20;;
34928;SDS011;21133;48.048;7.724;2022-10-19T01:47:27;9.47;;;8.47;;
34928;SDS011;21133;48.048;7.724;2022-10-19T01:49:56;7.07;;;6.30;;
34928;SDS011;21133;48.048;7.724;2022-10-19T01:52:24;7.57;;;7.00;;
34928;SDS011;21133;48.048;7.724;2022-10-19T01:54:52;10.50;;;6.97;;
34928;SDS011;21133;48.048;7.724;2022-10-19T01:57:20;9.97;;;9.00;;
34928;SDS011;21133;48.048;7.724;2022-10-19T01:59:47;10.53;;;8.80;;
34928;SDS011;21133;48.048;7.724;2022-10-19T02:02:13;10.53;;;7.63;;
34928;SDS011;21133;48.048;7.724;2022-10-19T02:04:40;9.30;;;8.50;;
34928;SDS011;21133;48.048;7.724;2022-10-19T02:07:07;8.97;;;8.20;;
34928;SDS011;21133;48.048;7.724;2022-10-19T02:09:34;9.83;;;7.87;;
34928;SDS011;21133;48.048;7.724;2022-10-19T02:12:00;10.10;;;8.80;;
34928;SDS011;21133;48.048;7.724;2022-10-19T02:14:35;13.90;;;8.97;;
34928;SDS011;21133;48.048;7.724;2022-10-19T02:17:02;11.53;;;10.07;;
34928;SDS011;21133;48.048;7.724;2022-10-19T02:19:30;32.37;;;10.30;;
34928;SDS011;21133;48.048;7.724;2022-10-19T02:21:56;17.00;;;9.47;;
34928;SDS011;21133;48.048;7.724;2022-10-19T02:24:22;19.50;;;10.67;;
34928;SDS011;21133;48.048;7.724;2022-10-19T02:26:48;22.00;;;11.20;;
34928;SDS011;21133;48.048;7.724;2022-10-19T02:29:14;31.10;;;11.13;;
34928;SDS011;21133;48.048;7.724;2022-10-19T02:31:40;19.70;;;10.10;;
34928;SDS011;21133;48.048;7.724;2022-10-19T02:34:07;20.20;;;9.70;;
34928;SDS011;21133;48.048;7.724;2022-10-19T02:36:33;24.67;;;11.20;;
34928;SDS011;21133;48.048;7.724;2022-10-19T02:38:59;22.60;;;9.70;;
34928;SDS011;21133;48.048;7.724;2022-10-19T02:44:02;19.30;;;10.17;;
34928;SDS011;21133;48.048;7.724;2022-10-19T02:46:37;24.80;;;10.70;;
34928;SDS011;21133;48.048;7.724;2022-10-19T02:49:05;19.50;;;11.47;;
34928;SDS011;21133;48.048;7.724;2022-10-19T02:51:33;34.50;;;11.20;;
34928;SDS011;21133;48.048;7.724;2022-10-19T02:53:59;14.30;;;8.57;;
34928;SDS011;21133;48.048;7.724;2022-10-19T02:56:25;15.13;;;8.13;;
34928;SDS011;21133;48.048;7.724;2022-10-19T02:58:51;14.73;;;8.77;;
34928;SDS011;21133;48.048;7.724;2022-10-19T03:01:17;10.73;;;8.60;;
34928;SDS011;21133;48.048;7.724;2022-10-19T03:03:43;23.47;;;12.23;;
34928;SDS011;21133;48.048;7.724;2022-10-19T03:06:09;14.53;;;10.00;;
34928;SDS011;21133;48.048;7.724;2022-10-19T03:08:35;11.00;;;9.07;;
34928;SDS011;21133;48.048;7.724;2022-10-19T03:11:01;14.37;;;9.50;;
34928;SDS011;21133;48.048;7.724;2022-10-19T03:13:27;16.00;;;8.00;;
34928;SDS011;21133;48.048;7.724;2022-10-19T03:15:53;14.50;;;10.00;;
34928;SDS011;21133;48.048;7.724;2022-10-19T03:18:19;9.63;;;8.80;;
34928;SDS011;21133;48.048;7.724;2022-10-19T03:20:45;14.57;;;8.03;;
34928;SDS011;21133;48.048;7.724;2022-10-19T03:23:11;8.10;;;7.40;;
34928;SDS011;21133;48.048;7.724;2022-10-19T03:25:37;9.87;;;8.87;;
34928;SDS011;21133;48.048;7.724;2022-10-19T03:28:03;9.63;;;8.63;;
34928;SDS011;21133;48.048;7.724;2022-10-19T03:30:29;7.90;;;7.00;;
34928;SDS011;21133;48.048;7.724;2022-10-19T03:32:54;11.90;;;9.23;;
34928;SDS011;21133;48.048;7.724;2022-10-19T03:35:20;9.63;;;8.23;;
34928;SDS011;21133;48.048;7.724;2022-10-19T03:37:46;15.00;;;9.23;;
34928;SDS011;21133;48.048;7.724;2022-10-19T03:40:12;13.93;;;8.60;;
34928;SDS011;21133;48.048;7.724;2022-10-19T03:42:38;9.43;;;8.53;;
34928;SDS011;21133;48.048;7.724;2022-10-19T03:45:04;10.77;;;9.67;;
34928;SDS011;21133;48.048;7.724;2022-10-19T03:47:31;11.93;;;8.30;;
34928;SDS011;21133;48.048;7.724;2022-10-19T03:49:57;9.87;;;8.00;;
34928;SDS011;21133;48.048;7.724;2022-10-19T03:52:23;10.27;;;7.97;;
34928;SDS011;21133;48.048;7.724;2022-10-19T03:54:49;13.03;;;7.83;;
34928;SDS011;21133;48.048;7.724;2022-10-19T03:57:15;9.40;;;8.50;;
34928;SDS011;21133;48.048;7.724;2022-10-19T03:59:41;17.13;;;7.77;;
34928;SDS011;21133;48.048;7.724;2022-10-19T04:02:07;13.30;;;7.87;;
34928;SDS011;21133;48.048;7.724;2022-10-19T04:04:33;9.40;;;8.10;;
34928;SDS011;21133;48.048;7.724;2022-10-19T04:06:59;13.03;;;8.37;;
34928;SDS011;21133;48.048;7.724;2022-10-19T04:09:25;15.80;;;8.80;;
34928;SDS011;21133;48.048;7.724;2022-10-19T04:11:51;13.30;;;9.20;;
34928;SDS011;21133;48.048;7.724;2022-10-19T04:14:17;9.20;;;8.50;;
34928;SDS011;21133;48.048;7.724;2022-10-19T04:16:44;9.50;;;8.10;;
34928;SDS011;21133;48.048;7.724;2022-10-19T04:19:12;9.33;;;8.50;;
34928;SDS011;21133;48.048;7.724;2022-10-19T04:21:39;8.73;;;7.97;;
34928;SDS011;21133;48.048;7.724;2022-10-19T04:24:12;8.90;;;8.10;;
34928;SDS011;21133;48.048;7.724;2022-10-19T04:26:43;9.47;;;8.07;;
34928;SDS011;21133;48.048;7.724;2022-10-19T04:29:09;9.87;;;9.00;;
34928;SDS011;21133;48.048;7.724;2022-10-19T04:31:35;11.23;;;7.63;;
34928;SDS011;21133;48.048;7.724;2022-10-19T04:34:02;9.93;;;8.07;;
34928;SDS011;21133;48.048;7.724;2022-10-19T04:36:28;9.87;;;7.77;;
34928;SDS011;21133;48.048;7.724;2022-10-19T04:38:54;15.40;;;9.03;;
34928;SDS011;21133;48.048;7.724;2022-10-19T04:41:20;11.33;;;7.20;;
34928;SDS011;21133;48.048;7.724;2022-10-19T04:43:46;12.70;;;8.27;;
34928;SDS011;21133;48.048;7.724;2022-10-19T04:46:13;15.40;;;7.03;;
34928;SDS011;21133;48.048;7.724;2022-10-19T04:48:39;12.93;;;8.40;;
34928;SDS011;21133;48.048;7.724;2022-10-19T04:51:06;11.30;;;7.77;;
34928;SDS011;21133;48.048;7.724;2022-10-19T04:53:32;8.67;;;7.77;;
34928;SDS011;21133;48.048;7.724;2022-10-19T04:55:59;14.07;;;8.90;;
34928;SDS011;21133;48.048;7.724;2022-10-19T04:58:25;14.23;;;9.40;;
34928;SDS011;21133;48.048;7.724;2022-10-19T05:00:52;15.40;;;8.10;;
34928;SDS011;21133;48.048;7.724;2022-10-19T05:03:17;11.00;;;7.97;;
34928;SDS011;21133;48.048;7.724;2022-10-19T05:05:43;15.57;;;8.20;;
34928;SDS011;21133;48.048;7.724;2022-10-19T05:08:10;13.27;;;8.23;;
34928;SDS011;21133;48.048;7.724;2022-10-19T05:10:36;19.53;;;8.20;;
34928;SDS011;21133;48.048;7.724;2022-10-19T05:13:02;10.10;;;8.50;;
34928;SDS011;21133;48.048;7.724;2022-10-19T05:15:29;12.73;;;9.10;;
34928;SDS011;21133;48.048;7.724;2022-10-19T05:17:55;10.40;;;8.77;;
34928;SDS011;21133;48.048;7.724;2022-10-19T05:20:21;12.57;;;7.73;;
34928;SDS011;21133;48.048;7.724;2022-10-19T05:22:47;9.53;;;8.63;;
34928;SDS011;21133;48.048;7.724;2022-10-19T05:25:14;9.70;;;8.70;;
34928;SDS011;21133;48.048;7.724;2022-10-19T05:27:40;9.07;;;8.07;;
34928;SDS011;21133;48.048;7.724;2022-10-19T05:30:06;17.63;;;8.33;;
34928;SDS011;21133;48.048;7.724;2022-10-19T05:32:32;9.10;;;8.20;;
34928;SDS011;21133;48.048;7.724;2022-10-19T05:34:58;15.27;;;7.20;;
34928;SDS011;21133;48.048;7.724;2022-10-19T05:37:24;8.13;;;7.33;;
34928;SDS011;21133;48.048;7.724;2022-10-19T05:39:50;17.10;;;8.13;;
34928;SDS011;21133;48.048;7.724;2022-10-19T05:42:16;8.47;;;7.60;;
34928;SDS011;21133;48.048;7.724;2022-10-19T05:44:42;8.53;;;7.30;;
34928;SDS011;21133;48.048;7.724;2022-10-19T05:47:08;8.87;;;8.10;;
34928;SDS011;21133;48.048;7.724;2022-10-19T05:49:34;7.43;;;6.97;;
34928;SDS011;21133;48.048;7.724;2022-10-19T05:52:00;9.13;;;7.80;;
34928;SDS011;21133;48.048;7.724;2022-10-19T05:54:26;16.80;;;9.90;;
34928;SDS011;21133;48.048;7.724;2022-10-19T05:56:52;8.87;;;7.97;;
34928;SDS011;21133;48.048;7.724;2022-10-19T05:59:19;9.60;;;8.67;;
34928;SDS011;21133;48.048;7.724;2022-10-19T06:01:47;10.17;;;7.77;;
34928;SDS011;21133;48.048;7.724;2022-10-19T06:04:13;8.37;;;7.77;;
34928;SDS011;21133;48.048;7.724;2022-10-19T06:06:39;8.83;;;7.93;;
34928;SDS011;21133;48.048;7.724;2022-10-19T06:09:06;7.63;;;6.90;;
34928;SDS011;21133;48.048;7.724;2022-10-19T06:11:33;12.43;;;8.40;;
34928;SDS011;21133;48.048;7.724;2022-10-19T06:14:00;8.10;;;7.00;;
34928;SDS011;21133;48.048;7.724;2022-10-19T06:16:27;8.50;;;6.97;;
34928;SDS011;21133;48.048;7.724;2022-10-19T06:18:53;6.50;;;6.03;;
34928;SDS011;21133;48.048;7.724;2022-10-19T06:21:21;7.10;;;6.27;;
34928;SDS011;21133;48.048;7.724;2022-10-19T06:23:53;7.23;;;6.73;;
34928;SDS011;21133;48.048;7.724;2022-10-19T06:26:19;8.00;;;6.77;;
34928;SDS011;21133;48.048;7.724;2022-10-19T06:28:46;7.20;;;6.63;;
34928;SDS011;21133;48.048;7.724;2022-10-19T06:31:12;7.10;;;6.50;;
34928;SDS011;21133;48.048;7.724;2022-10-19T06:33:39;5.73;;;5.30;;
34928;SDS011;21133;48.048;7.724;2022-10-19T06:38:31;6.60;;;6.20;;
34928;SDS011;21133;48.048;7.724;2022-10-19T06:40:57;6.10;;;5.70;;
34928;SDS011;21133;48.048;7.724;2022-10-19T06:43:23;5.90;;;5.57;;
34928;SDS011;21133;48.048;7.724;2022-10-19T06:45:49;5.80;;;5.40;;
34928;SDS011;21133;48.048;7.724;2022-10-19T06:48:15;5.60;;;5.30;;
34928;SDS011;21133;48.048;7.724;2022-10-19T06:50:41;5.23;;;5.00;;
34928;SDS011;21133;48.048;7.724;2022-10-19T06:53:07;5.70;;;5.40;;
34928;SDS011;21133;48.048;7.724;2022-10-19T06:55:33;4.63;;;4.43;;
34928;SDS011;21133;48.048;7.724;2022-10-19T06:57:59;4.43;;;4.23;;
34928;SDS011;21133;48.048;7.724;2022-10-19T07:00:26;6.20;;;5.57;;
34928;SDS011;21133;48.048;7.724;2022-10-19T07:02:52;4.90;;;4.70;;
34928;SDS011;21133;48.048;7.724;2022-10-19T07:05:18;10.40;;;5.30;;
34928;SDS011;21133;48.048;7.724;2022-10-19T07:07:44;4.93;;;4.73;;
34928;SDS011;21133;48.048;7.724;2022-10-19T07:10:10;5.77;;;5.30;;
34928;SDS011;21133;48.048;7.724;2022-10-19T07:12:36;4.17;;;3.97;;
34928;SDS011;21133;48.048;7.724;2022-10-19T07:15:02;4.93;;;4.63;;
34928;SDS011;21133;48.048;7.724;2022-10-19T07:17:29;4.63;;;4.53;;
34928;SDS011;21133;48.048;7.724;2022-10-19T07:19:55;4.67;;;4.40;;
34928;SDS011;21133;48.048;7.724;2022-10-19T07:22:21;4.80;;;4.57;;
34928;SDS011;21133;48.048;7.724;2022-10-19T07:24:47;4.80;;;4.60;;
34928;SDS011;21133;48.048;7.724;2022-10-19T07:27:13;4.73;;;4.53;;
34928;SDS011;21133;48.048;7.724;2022-10-19T07:29:39;5.20;;;5.00;;
34928;SDS011;21133;48.048;7.724;2022-10-19T07:32:05;5.60;;;4.77;;
34928;SDS011;21133;48.048;7.724;2022-10-19T07:34:31;4.50;;;4.10;;
34928;SDS011;21133;48.048;7.724;2022-10-19T07:36:57;4.40;;;4.20;;
34928;SDS011;21133;48.048;7.724;2022-10-19T07:39:23;5.20;;;4.90;;
34928;SDS011;21133;48.048;7.724;2022-10-19T07:41:49;5.77;;;5.27;;
34928;SDS011;21133;48.048;7.724;2022-10-19T07:44:15;5.70;;;5.30;;
34928;SDS011;21133;48.048;7.724;2022-10-19T07:46:41;6.50;;;5.27;;
34928;SDS011;21133;48.048;7.724;2022-10-19T07:49:09;5.43;;;5.10;;
34928;SDS011;21133;48.048;7.724;2022-10-19T07:51:36;7.10;;;6.40;;
34928;SDS011;21133;48.048;7.724;2022-10-19T07:54:02;5.40;;;5.10;;
34928;SDS011;21133;48.048;7.724;2022-10-19T07:56:28;5.77;;;5.40;;
34928;SDS011;21133;48.048;7.724;2022-10-19T07:58:55;6.57;;;5.17;;
34928;SDS011;21133;48.048;7.724;2022-10-19T08:01:23;5.77;;;5.27;;
34928;SDS011;21133;48.048;7.724;2022-10-19T08:03:50;5.50;;;5.20;;
34928;SDS011;21133;48.048;7.724;2022-10-19T08:06:16;7.17;;;6.23;;
34928;SDS011;21133;48.048;7.724;2022-10-19T08:08:46;5.90;;;5.50;;
34928;SDS011;21133;48.048;7.724;2022-10-19T08:11:34;6.33;;;5.93;;
34928;SDS011;21133;48.048;7.724;2022-10-19T08:13:59;5.90;;;5.53;;
34928;SDS011;21133;48.048;7.724;2022-10-19T08:16:28;6.27;;;5.77;;
34928;SDS011;21133;48.048;7.724;2022-10-19T08:18:57;14.77;;;5.20;;
34928;SDS011;21133;48.048;7.724;2022-10-19T08:21:24;5.90;;;5.60;;
34928;SDS011;21133;48.048;7.724;2022-10-19T08:23:51;4.63;;;4.40;;
34928;SDS011;21133;48.048;7.724;2022-10-19T08:26:18;13.73;;;7.73;;
34928;SDS011;21133;48.048;7.724;2022-10-19T08:28:44;5.83;;;5.43;;
34928;SDS011;21133;48.048;7.724;2022-10-19T08:31:14;6.20;;;5.10;;
34928;SDS011;21133;48.048;7.724;2022-10-19T08:33:40;5.60;;;5.30;;
34928;SDS011;21133;48.048;7.724;2022-10-19T08:36:07;6.60;;;4.60;;
34928;SDS011;21133;48.048;7.724;2022-10-19T08:38:33;7.00;;;5.90;;
34928;SDS011;21133;48.048;7.724;2022-10-19T08:41:03;5.50;;;5.20;;
34928;SDS011;21133;48.048;7.724;2022-10-19T08:43:36;6.53;;;5.10;;
34928;SDS011;21133;48.048;7.724;2022-10-19T08:46:12;5.37;;;4.97;;
34928;SDS011;21133;48.048;7.724;2022-10-19T08:48:40;5.30;;;4.80;;
34928;SDS011;21133;48.048;7.724;2022-10-19T08:51:08;5.80;;;5.30;;
34928;SDS011;21133;48.048;7.724;2022-10-19T08:56:16;6.47;;;5.97;;
34928;SDS011;21133;48.048;7.724;2022-10-19T08:59:25;5.60;;;5.33;;
34928;SDS011;21133;48.048;7.724;2022-10-19T09:01:39;5.67;;;5.33;;
34928;SDS011;21133;48.048;7.724;2022-10-19T09:04:26;6.60;;;6.10;;
34928;SDS011;21133;48.048;7.724;2022-10-19T09:09:29;11.90;;;6.83;;
34928;SDS011;21133;48.048;7.724;2022-10-19T09:11:57;6.63;;;5.47;;
34928;SDS011;21133;48.048;7.724;2022-10-19T09:14:31;6.73;;;6.07;;
34928;SDS011;21133;48.048;7.724;2022-10-19T09:17:01;12.03;;;6.37;;
34928;SDS011;21133;48.048;7.724;2022-10-19T09:19:28;17.13;;;5.27;;
34928;SDS011;21133;48.048;7.724;2022-10-19T09:22:03;5.40;;;5.10;;
34928;SDS011;21133;48.048;7.724;2022-10-19T09:24:46;5.27;;;4.97;;
34928;SDS011;21133;48.048;7.724;2022-10-19T09:27:24;6.10;;;4.73;;
34928;SDS011;21133;48.048;7.724;2022-10-19T09:29:54;4.90;;;4.70;;
34928;SDS011;21133;48.048;7.724;2022-10-19T09:32:23;9.93;;;5.10;;
34928;SDS011;21133;48.048;7.724;2022-10-19T09:34:52;5.67;;;5.17;;
34928;SDS011;21133;48.048;7.724;2022-10-19T09:37:18;11.57;;;5.93;;
34928;SDS011;21133;48.048;7.724;2022-10-19T09:39:46;6.80;;;6.30;;
34928;SDS011;21133;48.048;7.724;2022-10-19T09:42:16;6.67;;;6.17;;
34928;SDS011;21133;48.048;7.724;2022-10-19T09:44:45;6.73;;;6.23;;
34928;SDS011;21133;48.048;7.724;2022-10-19T09:50:04;5.37;;;4.97;;
34928;SDS011;21133;48.048;7.724;2022-10-19T09:55:00;6.00;;;5.53;;
34928;SDS011;21133;48.048;7.724;2022-10-19T09:57:26;7.63;;;6.97;;
34928;SDS011;21133;48.048;7.724;2022-10-19T09:59:52;6.03;;;5.43;;
34928;SDS011;21133;48.048;7.724;2022-10-19T10:02:21;6.03;;;5.57;;
34928;SDS011;21133;48.048;7.724;2022-10-19T10:05:04;6.13;;;5.60;;
34928;SDS011;21133;48.048;7.724;2022-10-19T10:07:35;6.77;;;6.17;;
34928;SDS011;21133;48.048;7.724;2022-10-19T10:10:07;6.30;;;5.70;;
34928;SDS011;21133;48.048;7.724;2022-10-19T10:12:34;6.60;;;6.00;;
34928;SDS011;21133;48.048;7.724;2022-10-19T10:15:02;8.50;;;7.70;;
34928;SDS011;21133;48.048;7.724;2022-10-19T10:17:28;8.10;;;6.60;;
34928;SDS011;21133;48.048;7.724;2022-10-19T10:22:25;7.17;;;6.47;;
34928;SDS011;21133;48.048;7.724;2022-10-19T10:24:53;7.40;;;6.80;;
34928;SDS011;21133;48.048;7.724;2022-10-19T10:27:33;7.73;;;7.03;;
34928;SDS011;21133;48.048;7.724;2022-10-19T10:30:01;7.17;;;6.53;;
34928;SDS011;21133;48.048;7.724;2022-10-19T10:32:29;8.03;;;7.23;;
34928;SDS011;21133;48.048;7.724;2022-10-19T10:35:00;10.47;;;6.50;;
34928;SDS011;21133;48.048;7.724;2022-10-19T10:37:40;8.57;;;7.80;;
34928;SDS011;21133;48.048;7.724;2022-10-19T10:40:15;9.67;;;7.80;;
34928;SDS011;21133;48.048;7.724;2022-10-19T10:42:43;8.27;;;7.47;;
34928;SDS011;21133;48.048;7.724;2022-10-19T10:45:18;8.67;;;7.77;;
34928;SDS011;21133;48.048;7.724;2022-10-19T10:47:45;6.47;;;6.03;;
34928;SDS011;21133;48.048;7.724;2022-10-19T10:50:20;8.17;;;7.17;;
34928;SDS011;21133;48.048;7.724;2022-10-19T10:52:59;8.33;;;7.40;;
34928;SDS011;21133;48.048;7.724;2022-10-19T10:55:26;8.47;;;7.83;;
34928;SDS011;21133;48.048;7.724;2022-10-19T10:57:56;11.73;;;8.87;;
34928;SDS011;21133;48.048;7.724;2022-10-19T11:00:25;10.47;;;8.37;;
34928;SDS011;21133;48.048;7.724;2022-10-19T11:03:05;8.73;;;8.00;;
34928;SDS011;21133;48.048;7.724;2022-10-19T11:05:42;10.53;;;8.93;;
34928;SDS011;21133;48.048;7.724;2022-10-19T11:16:12;10.90;;;9.53;;
34928;SDS011;21133;48.048;7.724;2022-10-19T11:21:16;11.17;;;8.87;;
34928;SDS011;21133;48.048;7.724;2022-10-19T11:23:50;12.43;;;10.00;;
34928;SDS011;21133;48.048;7.724;2022-10-19T11:26:37;7.67;;;7.07;;
34928;SDS011;21133;48.048;7.724;2022-10-19T11:34:01;10.73;;;9.73;;
34928;SDS011;21133;48.048;7.724;2022-10-19T11:39:26;10.87;;;9.77;;
34928;SDS011;21133;48.048;7.724;2022-10-19T11:44:37;9.23;;;8.43;;
34928;SDS011;21133;48.048;7.724;2022-10-19T11:47:18;9.53;;;8.70;;
34928;SDS011;21133;48.048;7.724;2022-10-19T11:49:54;10.70;;;9.00;;
34928;SDS011;21133;48.048;7.724;2022-10-19T11:54:54;9.77;;;7.47;;
34928;SDS011;21133;48.048;7.724;2022-10-19T11:57:23;8.47;;;7.77;;
34928;SDS011;21133;48.048;7.724;2022-10-19T12:05:03;9.67;;;8.80;;
34928;SDS011;21133;48.048;7.724;2022-10-19T12:07:46;8.67;;;6.87;;
34928;SDS011;21133;48.048;7.724;2022-10-19T12:10:28;21.13;;;9.70;;
34928;SDS011;21133;48.048;7.724;2022-10-19T12:12:57;8.17;;;7.57;;
34928;SDS011;21133;48.048;7.724;2022-10-19T12:15:30;9.07;;;8.37;;
34928;SDS011;21133;48.048;7.724;2022-10-19T12:18:05;9.33;;;7.70;;
34928;SDS011;21133;48.048;7.724;2022-10-19T12:20:37;15.83;;;8.80;;
34928;SDS011;21133;48.048;7.724;2022-10-19T12:26:00;8.30;;;7.67;;
34928;SDS011;21133;48.048;7.724;2022-10-19T12:28:31;9.23;;;7.30;;
34928;SDS011;21133;48.048;7.724;2022-10-19T12:30:58;7.03;;;6.53;;
34928;SDS011;21133;48.048;7.724;2022-10-19T12:33:28;12.87;;;6.70;;
34928;SDS011;21133;48.048;7.724;2022-10-19T12:41:11;8.57;;;7.87;;
34928;SDS011;21133;48.048;7.724;2022-10-19T12:51:43;8.50;;;6.77;;
34928;SDS011;21133;48.048;7.724;2022-10-19T12:54:10;7.57;;;6.97;;
34928;SDS011;21133;48.048;7.724;2022-10-19T12:56:47;8.73;;;7.83;;
34928;SDS011;21133;48.048;7.724;2022-10-19T12:59:21;8.27;;;7.67;;
34928;SDS011;21133;48.048;7.724;2022-10-19T13:01:48;7.80;;;7.20;;
34928;SDS011;21133;48.048;7.724;2022-10-19T13:04:33;9.70;;;8.60;;
34928;SDS011;21133;48.048;7.724;2022-10-19T13:07:05;9.97;;;9.20;;
34928;SDS011;21133;48.048;7.724;2022-10-19T13:09:36;10.10;;;8.70;;
34928;SDS011;21133;48.048;7.724;2022-10-19T13:14:44;10.77;;;7.40;;
34928;SDS011;21133;48.048;7.724;2022-10-19T13:22:41;8.47;;;7.63;;
34928;SDS011;21133;48.048;7.724;2022-10-19T13:27:41;11.77;;;8.60;;
34928;SDS011;21133;48.048;7.724;2022-10-19T13:32:52;11.50;;;7.87;;
34928;SDS011;21133;48.048;7.724;2022-10-19T13:40:32;9.13;;;8.10;;
34928;SDS011;21133;48.048;7.724;2022-10-19T13:42:58;11.97;;;8.93;;
34928;SDS011;21133;48.048;7.724;2022-10-19T13:45:24;9.13;;;8.23;;
34928;SDS011;21133;48.048;7.724;2022-10-19T13:47:51;8.83;;;7.77;;
34928;SDS011;21133;48.048;7.724;2022-10-19T13:53:03;10.70;;;9.07;;
34928;SDS011;21133;48.048;7.724;2022-10-19T14:00:48;12.97;;;11.67;;
34928;SDS011;21133;48.048;7.724;2022-10-19T14:10:51;19.00;;;11.07;;
34928;SDS011;21133;48.048;7.724;2022-10-19T14:13:23;11.80;;;9.70;;
34928;SDS011;21133;48.048;7.724;2022-10-19T14:15:50;10.80;;;9.70;;
34928;SDS011;21133;48.048;7.724;2022-10-19T14:18:27;9.53;;;8.60;;
34928;SDS011;21133;48.048;7.724;2022-10-19T14:23:23;12.83;;;9.37;;
34928;SDS011;21133;48.048;7.724;2022-10-19T14:25:50;13.00;;;9.60;;
34928;SDS011;21133;48.048;7.724;2022-10-19T14:28:16;20.77;;;10.37;;
34928;SDS011;21133;48.048;7.724;2022-10-19T14:30:42;12.00;;;10.80;;
34928;SDS011;21133;48.048;7.724;2022-10-19T14:33:09;17.17;;;12.00;;
34928;SDS011;21133;48.048;7.724;2022-10-19T14:35:38;11.50;;;10.30;;
34928;SDS011;21133;48.048;7.724;2022-10-19T14:38:05;11.53;;;9.70;;
34928;SDS011;21133;48.048;7.724;2022-10-19T14:40:33;17.87;;;10.87;;
34928;SDS011;21133;48.048;7.724;2022-10-19T14:42:59;12.27;;;11.10;;
34928;SDS011;21133;48.048;7.724;2022-10-19T14:45:27;12.27;;;11.03;;
34928;SDS011;21133;48.048;7.724;2022-10-19T14:48:03;26.53;;;11.60;;
34928;SDS011;21133;48.048;7.724;2022-10-19T14:52:57;19.70;;;11.97;;
34928;SDS011;21133;48.048;7.724;2022-10-19T14:55:24;14.13;;;11.13;;
34928;SDS011;21133;48.048;7.724;2022-10-19T14:57:54;16.53;;;10.60;;
34928;SDS011;21133;48.048;7.724;2022-10-19T15:00:21;10.90;;;9.90;;
34928;SDS011;21133;48.048;7.724;2022-10-19T15:03:00;15.77;;;11.37;;
34928;SDS011;21133;48.048;7.724;2022-10-19T15:05:30;15.07;;;12.50;;
34928;SDS011;21133;48.048;7.724;2022-10-19T15:07:56;17.60;;;14.63;;
34928;SDS011;21133;48.048;7.724;2022-10-19T15:10:43;14.63;;;11.90;;
34928;SDS011;21133;48.048;7.724;2022-10-19T15:15:49;13.80;;;11.53;;
34928;SDS011;21133;48.048;7.724;2022-10-19T15:18:15;12.10;;;10.37;;
34928;SDS011;21133;48.048;7.724;2022-10-19T15:20:42;13.20;;;11.00;;
34928;SDS011;21133;48.048;7.724;2022-10-19T15:26:10;16.47;;;11.33;;
34928;SDS011;21133;48.048;7.724;2022-10-19T15:28:38;19.23;;;12.83;;
34928;SDS011;21133;48.048;7.724;2022-10-19T15:31:12;14.07;;;12.57;;
34928;SDS011;21133;48.048;7.724;2022-10-19T15:33:41;12.20;;;10.87;;
34928;SDS011;21133;48.048;7.724;2022-10-19T15:36:09;15.70;;;11.73;;
34928;SDS011;21133;48.048;7.724;2022-10-19T15:38:43;12.47;;;11.20;;
34928;SDS011;21133;48.048;7.724;2022-10-19T15:44:05;16.20;;;11.50;;
34928;SDS011;21133;48.048;7.724;2022-10-19T15:46:35;18.07;;;10.93;;
34928;SDS011;21133;48.048;7.724;2022-10-19T15:52:18;13.47;;;11.40;;
34928;SDS011;21133;48.048;7.724;2022-10-19T15:54:47;15.87;;;11.97;;
34928;SDS011;21133;48.048;7.724;2022-10-19T15:57:23;14.87;;;11.13;;
34928;SDS011;21133;48.048;7.724;2022-10-19T15:59:50;12.93;;;11.30;;
34928;SDS011;21133;48.048;7.724;2022-10-19T16:02:16;12.83;;;11.33;;
34928;SDS011;21133;48.048;7.724;2022-10-19T16:04:42;17.90;;;11.53;;
34928;SDS011;21133;48.048;7.724;2022-10-19T16:07:09;17.37;;;11.30;;
34928;SDS011;21133;48.048;7.724;2022-10-19T16:09:39;15.57;;;12.40;;
34928;SDS011;21133;48.048;7.724;2022-10-19T16:12:05;13.37;;;10.77;;
34928;SDS011;21133;48.048;7.724;2022-10-19T16:14:31;11.93;;;10.70;;
34928;SDS011;21133;48.048;7.724;2022-10-19T16:16:58;18.70;;;10.77;;
34928;SDS011;21133;48.048;7.724;2022-10-19T16:19:24;18.40;;;10.90;;
34928;SDS011;21133;48.048;7.724;2022-10-19T16:21:50;11.93;;;10.83;;
34928;SDS011;21133;48.048;7.724;2022-10-19T16:24:16;17.67;;;9.73;;
34928;SDS011;21133;48.048;7.724;2022-10-19T16:26:42;11.80;;;10.50;;
34928;SDS011;21133;48.048;7.724;2022-10-19T16:29:08;11.00;;;10.00;;
34928;SDS011;21133;48.048;7.724;2022-10-19T16:31:34;11.70;;;10.70;;
34928;SDS011;21133;48.048;7.724;2022-10-19T16:34:00;16.00;;;12.00;;
34928;SDS011;21133;48.048;7.724;2022-10-19T16:36:26;12.67;;;11.33;;
34928;SDS011;21133;48.048;7.724;2022-10-19T16:38:52;12.80;;;11.40;;
34928;SDS011;21133;48.048;7.724;2022-10-19T16:41:18;12.63;;;11.30;;
34928;SDS011;21133;48.048;7.724;2022-10-19T16:43:44;14.00;;;11.87;;
34928;SDS011;21133;48.048;7.724;2022-10-19T16:46:12;11.63;;;10.50;;
34928;SDS011;21133;48.048;7.724;2022-10-19T16:48:38;13.67;;;11.53;;
34928;SDS011;21133;48.048;7.724;2022-10-19T16:53:30;12.93;;;11.37;;
34928;SDS011;21133;48.048;7.724;2022-10-19T16:56:02;13.00;;;11.20;;
34928;SDS011;21133;48.048;7.724;2022-10-19T16:58:28;13.23;;;11.67;;
34928;SDS011;21133;48.048;7.724;2022-10-19T17:00:54;14.13;;;10.13;;